createdAt,value
2018-08-23T00:01:37.011Z,47.00
2018-08-23T00:04:11.451Z,46.50
2018-08-23T00:06:47.734Z,46.30
2018-08-23T00:09:16.956Z,46.50
2018-08-23T00:11:46.926Z,46.50
2018-08-23T00:14:17.164Z,47.90
2018-08-23T00:16:47.880Z,47.40
2018-08-23T00:19:17.488Z,47.60
2018-08-23T00:21:48.984Z,47.10
2018-08-23T00:24:19.336Z,46.70
2018-08-23T00:26:50.660Z,48.60
2018-08-23T00:29:30.151Z,47.00
2018-08-23T00:32:14.066Z,48.20
2018-08-23T00:34:43.292Z,49.40
2018-08-23T00:37:13.617Z,48.20
2018-08-23T00:39:42.904Z,49.40
2018-08-23T00:42:12.943Z,49.50
2018-08-23T00:45:01.988Z,50.70
2018-08-23T00:47:32.436Z,50.50
2018-08-23T00:50:01.772Z,50.40
2018-08-23T00:52:44.586Z,50.50
2018-08-23T00:55:16.672Z,51.90
2018-08-23T00:57:46.975Z,51.80
2018-08-23T01:00:22.104Z,52.20
2018-08-23T01:02:52.779Z,51.20
2018-08-23T01:05:27.643Z,51.40
2018-08-23T01:07:57.065Z,51.60
2018-08-23T01:10:26.296Z,50.70
2018-08-23T01:12:59.902Z,51.80
2018-08-23T01:15:29.781Z,52.50
2018-08-23T01:18:12.636Z,52.20
2018-08-23T01:20:42.728Z,51.00
2018-08-23T01:23:11.962Z,51.50
2018-08-23T01:25:42.660Z,52.70
2018-08-23T01:28:11.998Z,52.40
2018-08-23T01:30:41.736Z,52.80
2018-08-23T01:33:13.073Z,52.70
2018-08-23T01:35:43.516Z,52.30
2018-08-23T01:38:13.704Z,52.50
2018-08-23T01:40:43.439Z,53.50
2018-08-23T01:43:12.779Z,53.50
2018-08-23T01:45:42.040Z,52.00
2018-08-23T01:48:11.808Z,51.80
2018-08-23T01:50:41.052Z,51.60
2018-08-23T01:53:10.300Z,52.10
2018-08-23T01:55:39.760Z,53.90
2018-08-23T01:58:09.043Z,54.30
2018-08-23T02:00:38.308Z,54.70
2018-08-23T02:03:07.991Z,54.40
2018-08-23T02:05:38.795Z,55.60
2018-08-23T02:08:08.139Z,55.20
2018-08-23T02:10:37.447Z,54.80
2018-08-23T02:13:14.415Z,53.00
2018-08-23T02:15:49.031Z,52.90
2018-08-23T02:18:18.568Z,53.30
2018-08-23T02:20:50.429Z,53.10
2018-08-23T02:23:19.763Z,52.80
2018-08-23T02:25:49.028Z,53.20
2018-08-23T02:28:18.292Z,53.20
2018-08-23T02:30:56.772Z,54.90
2018-08-23T02:33:26.812Z,56.00
2018-08-23T02:36:22.986Z,57.20
2018-08-23T02:39:04.701Z,56.00
2018-08-23T02:41:34.000Z,56.80
2018-08-23T02:44:03.277Z,56.90
2018-08-23T02:46:33.020Z,57.20
2018-08-23T02:49:02.305Z,57.70
2018-08-23T02:51:40.647Z,57.50
2018-08-23T02:54:12.054Z,57.40
2018-08-23T02:56:45.582Z,57.00
2018-08-23T02:59:14.860Z,58.20
2018-08-23T03:01:49.076Z,55.90
2018-08-23T03:04:21.644Z,57.60
2018-08-23T03:06:54.252Z,57.00
2018-08-23T03:09:26.901Z,57.90
2018-08-23T03:11:57.225Z,56.40
2018-08-23T03:14:27.576Z,57.00
2018-08-23T03:17:40.563Z,57.60
2018-08-23T03:20:14.425Z,57.30
2018-08-23T03:22:45.012Z,58.40
2018-08-23T03:25:15.991Z,56.70
2018-08-23T03:27:45.317Z,57.10
2018-08-23T03:30:17.513Z,56.30
2018-08-23T03:32:46.965Z,56.40
2018-08-23T03:35:16.211Z,55.80
2018-08-23T03:37:45.492Z,57.70
2018-08-23T03:40:16.301Z,58.30
2018-08-23T03:42:46.510Z,57.90
2018-08-23T03:45:21.297Z,59.30
2018-08-23T03:47:50.807Z,60.50
2018-08-23T03:50:20.192Z,57.70
2018-08-23T03:52:53.558Z,58.00
2018-08-23T03:55:25.361Z,58.90
2018-08-23T03:57:59.748Z,58.90
2018-08-23T04:00:34.997Z,61.50
2018-08-23T04:03:09.141Z,59.60
2018-08-23T04:05:38.408Z,58.70
2018-08-23T04:08:07.664Z,58.60
2018-08-23T04:10:36.986Z,62.40
2018-08-23T04:13:06.242Z,59.60
2018-08-23T04:15:35.506Z,58.80
2018-08-23T04:18:14.158Z,59.10
2018-08-23T04:20:51.558Z,58.70
2018-08-23T04:23:20.876Z,58.80
2018-08-23T04:25:50.111Z,59.30
2018-08-23T04:28:19.371Z,59.50
2018-08-23T04:30:48.644Z,61.40
2018-08-23T04:33:17.888Z,60.80
2018-08-23T04:35:47.140Z,59.20
2018-08-23T04:38:16.516Z,59.80
2018-08-23T04:40:58.060Z,59.70
2018-08-23T04:43:27.336Z,60.10
2018-08-23T04:45:56.627Z,59.10
2018-08-23T04:48:25.961Z,58.70
2018-08-23T04:50:55.464Z,59.80
2018-08-23T04:53:24.681Z,60.10
2018-08-23T04:55:54.008Z,60.20
2018-08-23T04:58:23.847Z,60.00
2018-08-23T05:00:53.147Z,59.70
2018-08-23T05:03:22.513Z,59.70
2018-08-23T05:05:51.824Z,59.90
2018-08-23T05:08:21.064Z,59.90
2018-08-23T05:10:50.420Z,60.50
2018-08-23T05:13:19.732Z,59.40
2018-08-23T05:15:49.048Z,59.40
2018-08-23T05:18:18.452Z,59.00
2018-08-23T05:20:48.160Z,59.90
2018-08-23T05:23:18.358Z,60.60
2018-08-23T05:25:47.612Z,59.60
2018-08-23T05:28:18.453Z,59.70
2018-08-23T05:30:48.447Z,60.10
2018-08-23T05:33:18.940Z,59.70
2018-08-23T05:35:48.300Z,60.10
2018-08-23T05:38:18.321Z,60.70
2018-08-23T05:40:55.600Z,60.00
2018-08-23T05:43:24.870Z,60.00
2018-08-23T05:45:55.443Z,59.90
2018-08-23T05:48:32.062Z,60.60
2018-08-23T05:51:05.512Z,59.90
2018-08-23T05:53:39.302Z,59.80
2018-08-23T05:56:09.132Z,59.90
2018-08-23T05:58:38.696Z,59.50
2018-08-23T06:01:08.340Z,59.30
2018-08-23T06:03:38.021Z,59.30
2018-08-23T06:06:07.657Z,60.10
2018-08-23T06:08:37.018Z,59.60
2018-08-23T06:11:08.603Z,59.70
2018-08-23T06:13:38.085Z,59.70
2018-08-23T06:16:07.453Z,60.70
2018-08-23T06:18:36.702Z,59.70
2018-08-23T06:21:06.397Z,60.30
2018-08-23T06:24:00.421Z,59.70
2018-08-23T06:26:43.667Z,59.30
2018-08-23T06:29:27.017Z,59.00
2018-08-23T06:32:09.433Z,60.60
2018-08-23T06:34:50.224Z,59.40
2018-08-23T06:37:20.861Z,59.70
2018-08-23T06:39:50.124Z,59.50
2018-08-23T06:42:19.659Z,60.30
2018-08-23T06:44:52.196Z,59.10
2018-08-23T06:47:22.811Z,60.10
2018-08-23T06:49:53.244Z,59.10
2018-08-23T06:52:29.781Z,59.30
2018-08-23T06:55:00.499Z,59.10
2018-08-23T06:57:40.419Z,58.70
2018-08-23T07:00:09.792Z,58.40
2018-08-23T07:02:45.502Z,59.70
2018-08-23T07:05:14.769Z,59.30
2018-08-23T07:07:44.153Z,58.50
2018-08-23T07:10:14.013Z,58.30
2018-08-23T07:12:43.671Z,58.60
2018-08-23T07:15:13.092Z,58.30
2018-08-23T07:17:42.399Z,58.30
2018-08-23T07:20:12.480Z,58.40
2018-08-23T07:22:41.812Z,58.70
2018-08-23T07:25:14.364Z,58.10
2018-08-23T07:27:43.972Z,58.00
2018-08-23T07:30:19.380Z,58.70
2018-08-23T07:32:49.808Z,57.80
2018-08-23T07:35:20.312Z,57.90
2018-08-23T07:37:51.194Z,58.10
2018-08-23T07:40:22.582Z,57.80
2018-08-23T07:42:53.376Z,57.90
2018-08-23T07:45:22.661Z,57.80
2018-08-23T07:47:54.420Z,57.20
2018-08-23T07:50:23.749Z,57.20
2018-08-23T07:52:54.124Z,56.90
2018-08-23T07:55:23.376Z,56.60
2018-08-23T07:57:52.627Z,56.60
2018-08-23T08:00:43.625Z,56.30
2018-08-23T08:03:14.187Z,56.10
2018-08-23T08:05:45.337Z,55.90
2018-08-23T08:08:14.750Z,55.30
2018-08-23T08:10:45.149Z,55.30
2018-08-23T08:13:14.441Z,55.10
2018-08-23T08:15:43.685Z,55.20
2018-08-23T08:18:28.333Z,55.20
2018-08-23T08:21:03.466Z,54.90
2018-08-23T08:23:33.832Z,54.70
2018-08-23T08:26:03.068Z,54.70
2018-08-23T08:28:32.325Z,54.90
2018-08-23T08:31:02.424Z,54.80
2018-08-23T08:33:34.658Z,54.90
2018-08-23T08:36:04.831Z,54.80
2018-08-23T08:38:34.751Z,54.30
2018-08-23T08:41:03.992Z,53.20
2018-08-23T08:43:34.044Z,53.30
2018-08-23T08:46:03.709Z,52.70
2018-08-23T08:48:34.054Z,53.50
2018-08-23T08:51:34.769Z,52.90
2018-08-23T08:54:04.520Z,52.20
2018-08-23T08:56:39.259Z,51.60
2018-08-23T08:59:08.507Z,52.10
2018-08-23T09:01:37.776Z,51.50
2018-08-23T09:04:07.528Z,51.00
2018-08-23T09:06:44.803Z,49.10
2018-08-23T09:09:24.925Z,48.00
2018-08-23T09:11:54.308Z,47.80
2018-08-23T09:14:23.780Z,49.20
2018-08-23T09:16:53.642Z,48.00
2018-08-23T09:19:33.788Z,47.20
2018-08-23T09:22:10.776Z,47.80
2018-08-23T09:24:40.332Z,48.60
2018-08-23T09:27:16.096Z,48.10
2018-08-23T09:29:45.472Z,46.70
2018-08-23T09:32:21.040Z,45.70
2018-08-23T09:34:54.789Z,45.60
2018-08-23T09:37:24.326Z,45.40
2018-08-23T09:39:53.684Z,47.00
2018-08-23T09:42:22.926Z,46.10
2018-08-23T09:45:03.840Z,45.30
2018-08-23T09:47:34.176Z,45.90
2018-08-23T09:50:03.582Z,46.10
2018-08-23T09:52:40.204Z,45.60
2018-08-23T09:55:11.289Z,43.90
2018-08-23T09:57:40.916Z,43.40
2018-08-23T10:00:18.987Z,43.90
2018-08-23T10:02:53.548Z,43.50
2018-08-23T10:05:29.122Z,43.30
2018-08-23T10:08:04.205Z,42.80
2018-08-23T10:10:38.829Z,42.60
2018-08-23T10:13:13.476Z,42.60
2018-08-23T10:15:44.924Z,42.10
2018-08-23T10:18:25.850Z,41.60
2018-08-23T10:20:59.844Z,41.50
2018-08-23T10:23:29.356Z,41.60
2018-08-23T10:26:00.182Z,41.00
2018-08-23T10:29:05.097Z,40.90
2018-08-23T10:31:34.409Z,41.30
2018-08-23T10:34:03.664Z,41.40
2018-08-23T10:36:33.190Z,41.80
2018-08-23T10:39:02.540Z,41.60
2018-08-23T10:41:32.099Z,41.70
2018-08-23T10:44:01.501Z,41.90
2018-08-23T10:46:35.312Z,42.30
2018-08-23T10:49:04.642Z,42.00
2018-08-23T10:51:34.184Z,42.40
2018-08-23T10:54:03.541Z,41.90
2018-08-23T10:56:33.197Z,42.10
2018-08-23T10:59:02.739Z,42.30
2018-08-23T11:01:32.002Z,41.40
2018-08-23T11:04:07.656Z,41.60
2018-08-23T11:06:41.309Z,41.00
2018-08-23T11:09:15.796Z,39.30
2018-08-23T11:11:45.112Z,39.40
2018-08-23T11:14:19.624Z,39.10
2018-08-23T11:16:56.539Z,41.20
2018-08-23T11:19:31.028Z,35.80
2018-08-23T11:22:00.312Z,36.10
2018-08-23T11:24:30.824Z,37.70
2018-08-23T11:27:00.120Z,38.30
2018-08-23T11:29:29.449Z,38.90
2018-08-23T11:31:59.037Z,39.10
2018-08-23T11:34:28.564Z,39.70
2018-08-23T11:36:57.828Z,39.70
2018-08-23T11:39:27.109Z,40.10
2018-08-23T11:41:58.680Z,40.60
2018-08-23T11:44:27.928Z,41.40
2018-08-23T11:46:57.965Z,42.50
2018-08-23T11:49:28.484Z,43.20
2018-08-23T11:51:57.792Z,44.30
2018-08-23T11:54:27.116Z,45.80
2018-08-23T11:56:56.468Z,45.90
2018-08-23T11:59:25.885Z,47.10
2018-08-23T12:01:55.166Z,46.90
2018-08-23T12:04:24.749Z,47.80
2018-08-23T12:06:57.196Z,48.20
2018-08-23T12:09:31.980Z,47.50
2018-08-23T12:12:03.127Z,47.70
2018-08-23T12:14:32.423Z,48.30
2018-08-23T12:17:01.797Z,48.30
2018-08-23T12:19:31.472Z,48.70
2018-08-23T12:22:00.966Z,48.00
2018-08-23T12:24:30.381Z,48.00
2018-08-23T12:26:59.840Z,48.30
2018-08-23T12:29:29.835Z,48.80
2018-08-23T12:31:59.408Z,49.40
2018-08-23T12:34:35.241Z,49.40
2018-08-23T12:37:11.085Z,49.60
2018-08-23T12:39:45.668Z,49.60
2018-08-23T12:42:20.812Z,49.10
2018-08-23T12:44:53.412Z,49.10
2018-08-23T12:47:22.888Z,49.10
2018-08-23T12:49:52.312Z,49.10
2018-08-23T12:52:22.533Z,49.10
2018-08-23T12:54:52.963Z,49.40
2018-08-23T12:57:22.484Z,49.40
2018-08-23T12:59:53.034Z,48.90
2018-08-23T13:02:22.645Z,48.60
2018-08-23T13:04:53.238Z,49.10
2018-08-23T13:07:22.744Z,49.30
2018-08-23T13:09:52.690Z,48.60
2018-08-23T13:12:22.260Z,47.70
2018-08-23T13:14:51.598Z,45.80
2018-08-23T13:17:23.327Z,43.30
2018-08-23T13:19:52.928Z,43.20
2018-08-23T13:22:27.620Z,41.10
2018-08-23T13:25:03.545Z,41.10
2018-08-23T13:27:33.635Z,40.20
2018-08-23T13:30:07.404Z,41.20
2018-08-23T13:32:36.888Z,41.70
2018-08-23T13:35:06.682Z,38.60
2018-08-23T13:37:36.532Z,38.10
2018-08-23T13:40:06.213Z,40.00
2018-08-23T13:42:36.125Z,41.10
2018-08-23T13:45:06.828Z,40.50
2018-08-23T13:47:36.196Z,34.90
2018-08-23T13:50:05.493Z,35.70
2018-08-23T13:52:34.997Z,36.10
2018-08-23T13:55:04.568Z,33.30
2018-08-23T13:57:33.965Z,35.50
2018-08-23T14:00:03.308Z,36.30
2018-08-23T14:02:32.659Z,36.20
2018-08-23T14:05:01.880Z,37.20
2018-08-23T14:07:31.301Z,40.50
2018-08-23T14:10:00.796Z,39.40
2018-08-23T14:12:30.072Z,34.40
2018-08-23T14:14:59.600Z,30.40
2018-08-23T14:17:29.096Z,29.50
2018-08-23T14:19:58.368Z,33.70
2018-08-23T14:22:27.605Z,28.90
2018-08-23T14:24:56.856Z,29.10
2018-08-23T14:27:27.453Z,27.30
2018-08-23T14:29:57.012Z,25.40
2018-08-23T14:32:26.277Z,27.40
2018-08-23T14:34:55.643Z,28.30
2018-08-23T14:37:24.960Z,29.70
2018-08-23T14:39:54.489Z,28.80
2018-08-23T14:42:23.732Z,28.20
2018-08-23T14:44:53.017Z,28.10
2018-08-23T14:47:27.686Z,28.70
2018-08-23T14:49:57.325Z,29.70
2018-08-23T14:52:27.006Z,30.10
2018-08-23T14:54:56.376Z,29.80
2018-08-23T14:57:32.121Z,31.50
2018-08-23T15:00:01.707Z,31.80
2018-08-23T15:02:31.319Z,31.30
2018-08-23T15:05:00.771Z,31.00
2018-08-23T15:07:32.544Z,32.00
2018-08-23T15:10:03.111Z,30.40
2018-08-23T15:12:32.627Z,31.00
2018-08-23T15:15:02.553Z,31.20
2018-08-23T15:17:32.197Z,31.50
2018-08-23T15:20:01.820Z,31.30
2018-08-23T15:22:31.465Z,31.60
2018-08-23T15:25:01.063Z,32.10
2018-08-23T15:27:34.273Z,30.80
2018-08-23T15:30:05.508Z,31.60
2018-08-23T15:32:34.780Z,31.40
2018-08-23T15:35:08.112Z,31.40
2018-08-23T15:37:37.642Z,32.30
2018-08-23T15:40:06.950Z,33.40
2018-08-23T15:42:36.276Z,33.00
2018-08-23T15:45:05.917Z,32.80
2018-08-23T15:47:35.529Z,32.60
2018-08-23T15:50:05.715Z,32.90
2018-08-23T15:52:35.266Z,32.60
2018-08-23T15:55:04.714Z,32.20
2018-08-23T15:57:34.504Z,32.80
2018-08-23T16:00:05.961Z,33.70
2018-08-23T16:02:35.339Z,34.00
2018-08-23T16:05:05.112Z,34.10
2018-08-23T16:07:34.472Z,35.00
2018-08-23T16:10:06.924Z,34.50
2018-08-23T16:12:37.039Z,33.40
2018-08-23T16:15:13.085Z,33.30
2018-08-23T16:17:47.503Z,33.80
2018-08-23T16:20:27.085Z,33.60
2018-08-23T16:22:58.164Z,32.90
2018-08-23T16:25:27.487Z,33.50
2018-08-23T16:28:00.848Z,34.80
2018-08-23T16:30:30.564Z,34.50
2018-08-23T16:33:00.039Z,34.80
2018-08-23T16:35:33.742Z,35.60
2018-08-23T16:38:04.192Z,36.20
2018-08-23T16:40:33.812Z,35.80
2018-08-23T16:43:04.195Z,34.80
2018-08-23T16:45:35.721Z,34.00
2018-08-23T16:48:05.085Z,34.20
2018-08-23T16:50:34.621Z,34.40
2018-08-23T16:53:03.939Z,32.80
2018-08-23T16:55:34.624Z,32.90
2018-08-23T16:58:05.526Z,32.50
2018-08-23T17:00:34.937Z,32.50
2018-08-23T17:03:05.990Z,33.50
2018-08-23T17:05:35.368Z,32.20
2018-08-23T17:08:04.752Z,32.00
2018-08-23T17:10:34.309Z,32.90
2018-08-23T17:13:03.892Z,33.20
2018-08-23T17:15:38.734Z,33.20
2018-08-23T17:18:09.565Z,33.00
2018-08-23T17:20:39.165Z,33.50
2018-08-23T17:23:13.787Z,34.40
2018-08-23T17:25:44.043Z,34.60
2018-08-23T17:28:18.185Z,35.30
2018-08-23T17:30:48.311Z,35.80
2018-08-23T17:33:17.528Z,35.80
2018-08-23T17:35:47.144Z,36.30
2018-08-23T17:38:17.522Z,36.90
2018-08-23T17:40:47.620Z,37.10
2018-08-23T17:43:19.245Z,37.80
2018-08-23T17:45:50.392Z,38.60
2018-08-23T17:48:20.249Z,37.80
2018-08-23T17:50:51.079Z,38.70
2018-08-23T17:53:20.959Z,38.30
2018-08-23T17:55:50.406Z,39.50
2018-08-23T17:58:19.934Z,39.20
2018-08-23T18:00:49.566Z,39.10
2018-08-23T18:03:19.117Z,39.40
2018-08-23T18:05:48.677Z,39.80
2018-08-23T18:08:18.212Z,40.60
2018-08-23T18:10:47.661Z,41.30
2018-08-23T18:13:18.180Z,40.50
2018-08-23T18:15:53.284Z,41.70
2018-08-23T18:18:23.811Z,41.80
2018-08-23T18:20:53.387Z,41.70
2018-08-23T18:23:23.980Z,42.70
2018-08-23T18:25:53.577Z,42.30
2018-08-23T18:28:24.084Z,43.00
2018-08-23T18:30:55.544Z,43.60
2018-08-23T18:33:24.897Z,43.90
2018-08-23T18:35:54.456Z,43.60
2018-08-23T18:38:24.084Z,43.50
2018-08-23T18:40:53.658Z,44.40
2018-08-23T18:43:24.746Z,44.30
2018-08-23T18:45:54.106Z,44.40
2018-08-23T18:48:27.413Z,45.20
2018-08-23T18:50:57.239Z,44.90
2018-08-23T18:53:28.908Z,44.70
2018-08-23T18:56:00.896Z,45.10
2018-08-23T18:58:30.539Z,44.90
2018-08-23T19:01:00.656Z,46.70
2018-08-23T19:03:31.434Z,46.50
2018-08-23T19:06:02.338Z,47.10
2018-08-23T19:08:34.099Z,48.40
2018-08-23T19:11:07.100Z,48.40
2018-08-23T19:13:37.023Z,48.30
2018-08-23T19:16:11.529Z,48.60
2018-08-23T19:18:42.076Z,48.80
2018-08-23T19:21:11.368Z,49.00
2018-08-23T19:23:40.652Z,48.60
2018-08-23T19:26:12.035Z,49.30
2018-08-23T19:28:41.620Z,49.70
2018-08-23T19:31:13.674Z,50.20
2018-08-23T19:33:45.437Z,49.10
2018-08-23T19:36:14.919Z,50.20
2018-08-23T19:38:44.147Z,50.90
2018-08-23T19:41:17.121Z,50.70
2018-08-23T19:43:50.444Z,49.40
2018-08-23T19:46:25.441Z,49.40
2018-08-23T19:49:01.152Z,49.80
2018-08-23T19:51:32.768Z,49.60
2018-08-23T19:54:02.336Z,50.00
2018-08-23T19:56:31.724Z,51.20
2018-08-23T19:59:02.202Z,50.60
2018-08-23T20:01:32.757Z,50.70
2018-08-23T20:04:02.339Z,52.60
2018-08-23T20:06:32.103Z,52.10
2018-08-23T20:09:01.721Z,51.10
2018-08-23T20:11:31.148Z,51.90
2018-08-23T20:14:08.080Z,50.80
2018-08-23T20:16:38.670Z,52.30
2018-08-23T20:19:08.204Z,52.20
2018-08-23T20:21:37.752Z,52.00
2018-08-23T20:24:07.560Z,51.40
2018-08-23T20:26:37.449Z,51.40
2018-08-23T20:29:07.056Z,51.30
2018-08-23T20:31:36.579Z,51.50
2018-08-23T20:34:07.116Z,52.10
2018-08-23T20:36:36.387Z,51.10
2018-08-23T20:39:08.771Z,50.70
2018-08-23T20:41:38.060Z,51.00
2018-08-23T20:44:07.596Z,51.20
2018-08-23T20:46:37.149Z,50.10
2018-08-23T20:49:06.812Z,50.10
2018-08-23T20:51:36.788Z,49.60
2018-08-23T20:54:06.512Z,50.60
2018-08-23T20:56:35.769Z,52.50
2018-08-23T20:59:05.383Z,53.90
2018-08-23T21:01:34.755Z,54.80
2018-08-23T21:04:04.517Z,55.50
2018-08-23T21:06:33.764Z,56.30
2018-08-23T21:09:04.595Z,57.20
2018-08-23T21:11:34.242Z,58.20
2018-08-23T21:14:03.576Z,58.60
2018-08-23T21:16:33.102Z,59.50
2018-08-23T21:19:02.738Z,59.60
2018-08-23T21:21:32.057Z,59.40
2018-08-23T21:24:01.356Z,59.50
2018-08-23T21:26:31.244Z,59.50
2018-08-23T21:29:01.211Z,59.40
2018-08-23T21:31:30.880Z,60.30
2018-08-23T21:34:00.317Z,59.70
2018-08-23T21:36:29.584Z,59.60
2018-08-23T21:38:58.807Z,60.20
2018-08-23T21:41:28.388Z,58.70
2018-08-23T21:43:58.888Z,60.60
2018-08-23T21:46:28.493Z,63.20
2018-08-23T21:48:59.129Z,61.20
2018-08-23T21:51:28.423Z,60.40
2018-08-23T21:53:57.701Z,61.50
2018-08-23T21:56:27.256Z,61.20
2018-08-23T21:58:57.190Z,61.30
2018-08-23T22:01:26.589Z,60.60
2018-08-23T22:03:55.924Z,59.20
2018-08-23T22:06:25.293Z,58.50
2018-08-23T22:08:54.551Z,59.00
2018-08-23T22:11:24.188Z,58.90
2018-08-23T22:13:53.460Z,58.90
2018-08-23T22:16:23.620Z,59.90
2018-08-23T22:18:52.922Z,63.90
2018-08-23T22:21:22.156Z,63.60
2018-08-23T22:23:51.433Z,61.50
2018-08-23T22:26:20.726Z,61.80
2018-08-23T22:28:50.013Z,66.60
2018-08-23T22:31:19.276Z,64.20
2018-08-23T22:33:48.823Z,65.20
2018-08-23T22:36:18.076Z,63.40
2018-08-23T22:38:47.351Z,66.70
2018-08-23T22:41:16.797Z,64.30
2018-08-23T22:43:46.051Z,65.70
2018-08-23T22:46:15.448Z,65.50
2018-08-23T22:48:44.860Z,64.50
2018-08-23T22:51:14.104Z,67.20
2018-08-23T22:53:43.660Z,65.30
2018-08-23T22:56:13.228Z,63.70
2018-08-23T22:58:42.492Z,64.40
2018-08-23T23:01:11.754Z,65.40
2018-08-23T23:03:46.260Z,63.50
2018-08-23T23:06:15.824Z,65.10
2018-08-23T23:08:45.268Z,66.30
2018-08-23T23:11:15.080Z,67.20
2018-08-23T23:13:44.437Z,69.80
2018-08-23T23:16:13.873Z,70.10
2018-08-23T23:18:43.070Z,73.10
2018-08-23T23:21:12.325Z,73.40
2018-08-23T23:23:41.769Z,74.70
2018-08-23T23:26:11.116Z,77.20
2018-08-23T23:28:40.373Z,75.10
2018-08-23T23:31:09.615Z,75.10
2018-08-23T23:33:39.129Z,74.40
2018-08-23T23:36:08.385Z,74.30
2018-08-23T23:38:37.675Z,74.80
2018-08-23T23:41:06.952Z,80.00
2018-08-23T23:43:36.184Z,83.10
2018-08-23T23:46:05.848Z,82.10
2018-08-23T23:48:35.472Z,78.20
2018-08-23T23:51:05.276Z,77.70
2018-08-23T23:53:34.639Z,78.60
2018-08-23T23:56:04.220Z,76.50
2018-08-23T23:58:33.424Z,79.50
